INFORMACIÓN METAR y TAF
METAR FOR EGFF
ADDS - METARS form results

(1809 UTC 06 July 2020)
Data provider http://aviationweather.gov/metar/data/
 
METAR text: EGFF 061750Z AUTO 28011KT 9999 SCT049 16/11 Q1024
Conditions at: EGFF (CARDIFF-WALES AR, GB) observed 1750 UTC 06 July 2020
Temperature: 16.0°C (61°F)
Dewpoint: 11.0°C (52°F) [RH = 72%]
Pressure (altimeter): 30.24 inches Hg (1024.0 mb)
Winds: from the W (280 degrees) at 13 MPH (11 knots; 5.7 m/s)
Visibility: 6 or more miles (10+ km)
Ceiling: at least 12,000 feet AGL
Clouds: scattered clouds at 4900 feet AGL
Weather: no significant weather observed at this time

METAR text: EGFF 061720Z AUTO 28014KT 9999 NCD 17/11 Q1024
Conditions at: EGFF (CARDIFF-WALES AR, GB) observed 1720 UTC 06 July 2020
Temperature: 17.0°C (63°F)
Dewpoint: 11.0°C (52°F) [RH = 68%]
Pressure (altimeter): 30.24 inches Hg (1024.0 mb)
Winds: from the W (280 degrees) at 16 MPH (14 knots; 7.2 m/s)
Visibility: 6 or more miles (10+ km)
Ceiling: at least 12,000 feet AGL
Clouds: sky clear below 12,000 feet AGL
Weather: no significant weather observed at this time

Forecast for: EGFF (CARDIFF-WALES AR, GB)
Text: TAF EGFF 061652Z 0618/0718 27012KT 9999 SCT025
Forecast period: 1800 UTC 06 July 2020 to 1800 UTC 07 July 2020
Forecast type: FROM: standard forecast or significant change
Winds: from the W (270 degrees) at 14 MPH (12 knots; 6.2 m/s)
Visibility: 6 or more miles 10+ km)
Ceiling: at least 12,000 feet AGL
Clouds: scattered clouds at 2500 feet AGL
Weather: no significant weather forecast for this period
Text: PROB30
Forecast period: 1600 to 1800 UTC 07 July 2020
Forecast type: TEMPORARY: The following changes expected for less than half the time period
Winds: from the WSW (250 degrees) at 17 MPH (15 knots; 7.7 m/s)
gusting to 29 MPH (25 knots; 12.9 m/s)
Visibility: 5 miles (8 km)
Ceiling: 1200 feet AGL
Clouds: broken clouds at 1200 feet AGL
Weather: -RA  (light rain)

 MAPA DE AEROPUERTO

 INFORMACIÓN DE PISTA
Pista 12 Longitud 7848 ft Ancho 151 ft
Elevación 205 ft Umbral desplazado 797 ft Rumbo de pista 117
Pista 30 Longitud 7848 ft Ancho 151 ft
Elevación 213 ft Umbral desplazado 551 ft Rumbo de pista 297

 FRECUANCIAS DEL AEROPUERTO
Tipo APP Nombre Cardiff Ap Frecuencia 119.15 MHZ
Tipo APP Nombre Cardiff Ra Frecuencia 125.85 MHZ
Tipo ATIS Nombre ATIS Frecuencia 132.475 MHZ
Tipo Radar Nombre Frecuencia 133.6 MHZ
Tipo TWR Nombre Cardiff Tw Frecuencia 133.1 MHZ

 RADIO AYUDAS DEL AEROPUERTO